Time;durP1;ratioP1;P1;durP2;ratioP2;P2;SDS_P1;SDS_P2;PMS_P1;PMS_P2;Temp;Humidity;BMP_temperature;BMP_pressure;BME280_temperature;BME280_humidity;BME280_pressure;Samples;Min_cycle;Max_cycle;Signal;HPM_P1;HPM_P2
2023/02/02 00:01:30;;;;;;;12.93;3.22;;;4.70;99.90;;;;;;5042001;28;25116;-75
2023/02/02 00:03:57;;;;;;;13.52;1.70;;;4.70;99.90;;;;;;5041982;28;25101;-75
2023/02/02 00:06:26;;;;;;;13.27;2.80;;;4.70;99.90;;;;;;5059673;28;25012;-75
2023/02/02 00:08:55;;;;;;;14.68;1.73;;;4.70;99.90;;;;;;5059573;28;25063;-75
2023/02/02 00:11:23;;;;;;;16.33;2.65;;;4.70;99.90;;;;;;5059682;28;25068;-75
2023/02/02 00:13:51;;;;;;;13.75;1.25;;;4.70;99.90;;;;;;5059471;28;25071;-75
2023/02/02 00:16:39;;;;;;;11.93;1.75;;;4.60;99.90;;;;;;5041914;28;25070;-75
2023/02/02 00:19:10;;;;;;;14.45;1.50;;;4.60;99.90;;;;;;5059831;28;25105;-75
2023/02/02 00:21:38;;;;;;;13.95;2.50;;;4.60;99.90;;;;;;5059356;28;25083;-75
2023/02/02 00:24:10;;;;;;;26.05;3.15;;;4.50;99.90;;;;;;5041675;28;25055;-75
2023/02/02 00:26:38;;;;;;;20.95;2.08;;;4.50;99.90;;;;;;5059379;28;25073;-75
2023/02/02 00:29:07;;;;;;;25.08;3.22;;;4.50;99.90;;;;;;5059968;28;25117;-75
2023/02/02 00:31:34;;;;;;;19.30;3.63;;;4.40;99.90;;;;;;5060045;28;25052;-75
2023/02/02 00:34:02;;;;;;;13.43;1.85;;;4.50;99.90;;;;;;5059395;28;25072;-75
2023/02/02 00:36:29;;;;;;;12.90;1.50;;;4.40;99.90;;;;;;5059136;28;25084;-75
2023/02/02 00:38:57;;;;;;;8.95;1.60;;;4.40;99.90;;;;;;5059521;28;25123;-75
2023/02/02 00:41:24;;;;;;;20.48;2.28;;;4.30;99.90;;;;;;5059009;28;25062;-75
2023/02/02 00:46:41;;;;;;;12.03;1.93;;;4.20;99.90;;;;;;5059282;28;25112;-75
2023/02/02 00:49:09;;;;;;;15.48;2.97;;;4.30;99.90;;;;;;5039169;28;25111;-75
2023/02/02 00:51:37;;;;;;;11.00;2.50;;;4.20;99.90;;;;;;5029942;28;25056;-75
2023/02/02 00:54:04;;;;;;;13.00;1.90;;;4.20;99.90;;;;;;5038527;28;25151;-75
2023/02/02 00:56:32;;;;;;;12.48;2.22;;;4.20;99.90;;;;;;5038758;28;25086;-75
2023/02/02 00:58:59;;;;;;;17.17;2.28;;;4.20;99.90;;;;;;5039509;28;25132;-75
2023/02/02 01:01:26;;;;;;;12.75;2.00;;;4.20;99.90;;;;;;5036187;28;25061;-75
2023/02/02 01:03:53;;;;;;;16.75;2.60;;;4.20;99.90;;;;;;5038711;28;25078;-75
2023/02/02 01:06:21;;;;;;;13.00;3.85;;;4.10;99.90;;;;;;5039138;28;25059;-75
2023/02/02 01:08:48;;;;;;;22.50;5.55;;;4.10;99.90;;;;;;5031393;28;25091;-75
2023/02/02 01:11:15;;;;;;;27.90;2.35;;;4.20;99.90;;;;;;5037459;28;25059;-75
2023/02/02 01:13:43;;;;;;;16.45;1.63;;;4.10;99.90;;;;;;5038451;28;25073;-75
2023/02/02 01:16:11;;;;;;;10.45;2.58;;;4.10;99.90;;;;;;5038689;28;25060;-75
2023/02/02 01:18:38;;;;;;;14.82;3.05;;;4.10;99.90;;;;;;5038665;28;25053;-75
2023/02/02 01:21:07;;;;;;;14.60;2.38;;;4.00;99.90;;;;;;5038869;28;25063;-75
2023/02/02 01:23:36;;;;;;;18.50;3.00;;;4.00;99.90;;;;;;5038849;28;25077;-75
2023/02/02 01:26:07;;;;;;;9.68;1.50;;;4.00;99.90;;;;;;5038200;28;25079;-75
2023/02/02 01:28:35;;;;;;;11.65;2.10;;;4.00;99.90;;;;;;5038173;28;25050;-75
2023/02/02 01:31:11;;;;;;;13.63;2.22;;;4.00;99.90;;;;;;5038199;28;25137;-75
2023/02/02 01:33:39;;;;;;;17.98;2.63;;;4.00;99.90;;;;;;5038095;28;25118;-75
2023/02/02 01:36:11;;;;;;;23.58;2.17;;;4.00;99.90;;;;;;5033204;28;25060;-75
2023/02/02 01:38:39;;;;;;;13.93;3.45;;;4.10;99.90;;;;;;5038593;28;25068;-75
2023/02/02 01:41:07;;;;;;;16.08;2.83;;;4.10;99.90;;;;;;5038142;28;25109;-75
2023/02/02 01:43:44;;;;;;;18.30;2.10;;;4.10;99.90;;;;;;5037939;28;25094;-75
2023/02/02 01:46:17;;;;;;;9.45;1.95;;;4.10;99.90;;;;;;5033691;28;25123;-75
2023/02/02 01:49:14;;;;;;;15.85;3.22;;;4.10;99.90;;;;;;5034022;28;25139;-75
2023/02/02 01:51:58;;;;;;;11.43;2.00;;;4.10;99.90;;;;;;5050540;28;25092;-75
2023/02/02 01:54:38;;;;;;;17.77;3.40;;;4.20;99.90;;;;;;5040169;28;25062;-75
2023/02/02 01:57:17;;;;;;;12.65;2.17;;;4.20;99.90;;;;;;5058092;28;25108;-75
2023/02/02 01:59:47;;;;;;;13.30;2.33;;;4.10;99.90;;;;;;5057875;28;25055;-75
2023/02/02 02:02:15;;;;;;;8.85;2.70;;;4.10;99.90;;;;;;5058282;28;25147;-75
2023/02/02 02:04:42;;;;;;;19.67;3.53;;;4.00;99.90;;;;;;5057583;28;25064;-75
2023/02/02 02:07:11;;;;;;;19.48;3.28;;;4.00;99.90;;;;;;5057421;28;25130;-75
2023/02/02 02:09:38;;;;;;;18.77;2.67;;;3.90;99.90;;;;;;5057949;28;25068;-75
2023/02/02 02:12:14;;;;;;;9.75;1.90;;;3.80;99.90;;;;;;5056440;28;25055;-75
2023/02/02 02:17:50;;;;;;;19.83;2.42;;;3.80;99.90;;;;;;5057206;28;25068;-75
2023/02/02 02:27:10;;;;;;;21.25;2.17;;;3.70;99.90;;;;;;5057003;28;25132;-75
2023/02/02 02:29:56;;;;;;;19.33;1.98;;;3.60;99.90;;;;;;5057308;28;25072;-75
2023/02/02 02:32:48;;;;;;;10.55;2.28;;;3.60;99.90;;;;;;5039448;28;25121;-75
2023/02/02 02:35:32;;;;;;;14.27;3.10;;;3.60;99.90;;;;;;5057396;28;25053;-75
2023/02/02 02:38:31;;;;;;;16.42;3.35;;;3.60;99.90;;;;;;5057129;28;25110;-75
2023/02/02 02:41:04;;;;;;;8.35;1.60;;;3.60;99.90;;;;;;5039035;28;25079;-75
2023/02/02 02:43:39;;;;;;;13.48;1.88;;;3.60;99.90;;;;;;5039044;28;25089;-75
2023/02/02 02:46:08;;;;;;;13.88;1.65;;;3.50;99.90;;;;;;5056701;28;25066;-75
2023/02/02 02:48:37;;;;;;;17.92;2.20;;;3.50;99.90;;;;;;5056527;28;25106;-75
2023/02/02 02:51:35;;;;;;;15.68;2.90;;;3.50;99.90;;;;;;5038875;28;25072;-75
2023/02/02 02:54:02;;;;;;;12.75;1.58;;;3.50;99.90;;;;;;5038959;28;25060;-75
2023/02/02 02:56:48;;;;;;;14.90;2.00;;;3.50;99.90;;;;;;5038175;28;25086;-75
2023/02/02 02:59:38;;;;;;;15.38;2.03;;;3.60;99.90;;;;;;5038928;28;25103;-75
2023/02/02 03:02:15;;;;;;;13.40;2.50;;;3.60;99.90;;;;;;5056728;28;25118;-75
2023/02/02 03:05:23;;;;;;;15.95;2.67;;;3.70;99.90;;;;;;5056904;28;25063;-75
2023/02/02 03:08:41;;;;;;;22.08;3.53;;;3.90;99.90;;;;;;5054635;28;25105;-75
2023/02/02 03:11:12;;;;;;;14.40;4.43;;;3.90;99.90;;;;;;4985146;28;25055;-75
2023/02/02 03:13:40;;;;;;;10.60;2.05;;;4.00;99.90;;;;;;5038724;28;25083;-75
2023/02/02 03:16:09;;;;;;;16.20;2.55;;;4.00;99.90;;;;;;5056556;28;25062;-75
2023/02/02 03:18:36;;;;;;;18.02;2.65;;;4.00;99.90;;;;;;5038535;28;25139;-75
2023/02/02 03:21:03;;;;;;;7.82;2.20;;;4.00;99.90;;;;;;5056819;28;25115;-75
2023/02/02 03:23:31;;;;;;;14.27;2.10;;;4.00;99.90;;;;;;5056008;28;25058;-75
2023/02/02 03:25:58;;;;;;;21.55;1.75;;;4.00;99.90;;;;;;5056316;28;25110;-75
2023/02/02 03:28:26;;;;;;;21.23;3.17;;;4.00;99.90;;;;;;5056183;28;25101;-75
2023/02/02 03:30:55;;;;;;;11.05;3.20;;;4.00;99.90;;;;;;5056147;28;25079;-75
2023/02/02 03:33:23;;;;;;;14.90;2.38;;;4.00;99.90;;;;;;5038435;28;25128;-75
2023/02/02 03:35:50;;;;;;;14.13;3.00;;;4.00;99.90;;;;;;5056266;28;25069;-75
2023/02/02 03:38:17;;;;;;;13.25;1.73;;;4.00;99.90;;;;;;5056079;28;25067;-75
2023/02/02 03:40:44;;;;;;;10.07;1.95;;;4.00;99.90;;;;;;5038292;28;25072;-75
2023/02/02 03:43:11;;;;;;;13.73;1.77;;;4.00;99.90;;;;;;5056545;28;25104;-75
2023/02/02 03:45:39;;;;;;;12.85;2.20;;;4.00;99.90;;;;;;5055994;28;25146;-75
2023/02/02 03:48:06;;;;;;;12.25;1.92;;;4.00;99.90;;;;;;5055890;28;25086;-75
2023/02/02 03:50:36;;;;;;;12.85;1.40;;;4.00;99.90;;;;;;5038500;28;25057;-75
2023/02/02 03:53:03;;;;;;;12.95;2.35;;;4.00;99.90;;;;;;5055088;28;25082;-75
2023/02/02 03:55:31;;;;;;;11.90;2.30;;;4.00;99.90;;;;;;5055805;28;25065;-75
2023/02/02 03:57:58;;;;;;;11.82;1.67;;;4.10;99.90;;;;;;5038190;28;25102;-75
2023/02/02 04:00:25;;;;;;;6.43;1.38;;;4.10;99.90;;;;;;5038117;28;25048;-75
2023/02/02 04:02:54;;;;;;;17.55;3.00;;;4.10;99.90;;;;;;5056104;28;25076;-75
2023/02/02 04:05:21;;;;;;;8.55;3.22;;;4.10;99.90;;;;;;5056076;28;25055;-75
2023/02/02 04:07:49;;;;;;;12.90;1.65;;;4.10;99.90;;;;;;5038120;28;25067;-75
2023/02/02 04:10:17;;;;;;;9.90;1.30;;;4.10;99.90;;;;;;5056298;28;25059;-75
2023/02/02 04:12:45;;;;;;;10.27;1.77;;;4.10;99.90;;;;;;5055940;28;25118;-75
2023/02/02 04:15:12;;;;;;;11.98;2.03;;;4.10;99.90;;;;;;5055872;28;25078;-75
2023/02/02 04:17:40;;;;;;;15.13;2.35;;;4.10;99.90;;;;;;5037993;28;25046;-75
2023/02/02 04:20:08;;;;;;;9.93;1.98;;;4.10;99.90;;;;;;5037981;28;25118;-75
2023/02/02 04:22:36;;;;;;;13.27;2.13;;;4.10;99.90;;;;;;5037962;28;25061;-75
2023/02/02 04:25:04;;;;;;;9.45;1.75;;;4.10;99.90;;;;;;5056247;28;25233;-75
2023/02/02 04:27:32;;;;;;;9.43;2.17;;;4.10;99.90;;;;;;5055629;28;25111;-75
2023/02/02 04:30:00;;;;;;;15.00;2.10;;;4.20;99.90;;;;;;5056190;28;25107;-75
2023/02/02 04:32:27;;;;;;;9.10;1.95;;;4.20;99.90;;;;;;5055510;28;25086;-75
2023/02/02 04:34:55;;;;;;;12.88;2.25;;;4.20;99.90;;;;;;5055750;28;25163;-75
2023/02/02 04:37:22;;;;;;;12.75;2.15;;;4.30;99.90;;;;;;5059074;28;25067;-75
2023/02/02 04:39:50;;;;;;;19.08;1.80;;;4.30;99.90;;;;;;5059058;28;25057;-75
2023/02/02 04:42:17;;;;;;;15.13;2.53;;;4.30;99.90;;;;;;5059618;28;25069;-75
2023/02/02 04:44:45;;;;;;;10.88;1.98;;;4.30;99.90;;;;;;5059487;28;25093;-75
2023/02/02 04:47:12;;;;;;;8.95;2.65;;;4.30;99.90;;;;;;5056776;28;25098;-75
2023/02/02 04:49:39;;;;;;;12.85;1.90;;;4.30;99.90;;;;;;5058264;28;25093;-75
2023/02/02 04:52:06;;;;;;;7.78;1.40;;;4.40;99.90;;;;;;5041048;28;25072;-75
2023/02/02 04:54:34;;;;;;;13.02;1.33;;;4.30;99.90;;;;;;5041311;28;25054;-75
2023/02/02 04:57:01;;;;;;;8.30;1.90;;;4.40;99.90;;;;;;5056860;28;25101;-75
2023/02/02 04:59:29;;;;;;;14.77;2.17;;;4.40;99.90;;;;;;5041281;28;25090;-75
2023/02/02 05:02:00;;;;;;;10.77;1.95;;;4.40;99.90;;;;;;5040946;28;25108;-75
2023/02/02 05:04:28;;;;;;;11.18;2.22;;;4.40;99.90;;;;;;5059053;28;25142;-75
2023/02/02 05:06:55;;;;;;;8.30;2.30;;;4.40;99.90;;;;;;5041128;28;25061;-76
2023/02/02 05:09:22;;;;;;;11.98;1.90;;;4.40;99.90;;;;;;5041062;28;25065;-75
2023/02/02 05:11:50;;;;;;;30.05;3.25;;;4.40;99.90;;;;;;5058459;28;25082;-75
2023/02/02 05:14:18;;;;;;;9.60;1.90;;;4.40;99.90;;;;;;5040723;28;25047;-75
2023/02/02 05:16:46;;;;;;;14.95;2.53;;;4.40;99.90;;;;;;5058391;28;25050;-76
2023/02/02 05:19:15;;;;;;;9.60;2.25;;;4.40;99.90;;;;;;5058628;28;25099;-75
2023/02/02 05:21:44;;;;;;;14.68;2.65;;;4.40;99.90;;;;;;5040749;28;25053;-75
2023/02/02 05:24:12;;;;;;;14.20;2.13;;;4.40;99.90;;;;;;5058855;28;25096;-75
2023/02/02 05:26:39;;;;;;;14.75;3.20;;;4.40;99.90;;;;;;5058154;28;25090;-76
2023/02/02 05:29:08;;;;;;;12.20;1.77;;;4.40;99.90;;;;;;5040616;28;25091;-75
2023/02/02 05:31:35;;;;;;;12.82;2.88;;;4.40;99.90;;;;;;5039425;28;25055;-75
2023/02/02 05:34:05;;;;;;;14.18;2.63;;;4.40;99.90;;;;;;5058551;28;25066;-75
2023/02/02 05:36:33;;;;;;;16.85;2.70;;;4.40;99.90;;;;;;5040275;28;25054;-75
2023/02/02 05:39:01;;;;;;;14.32;2.20;;;4.40;99.90;;;;;;5058693;28;25084;-75
2023/02/02 05:41:28;;;;;;;18.83;3.13;;;4.40;99.90;;;;;;5057881;28;25106;-75
2023/02/02 05:43:58;;;;;;;6.88;2.88;;;4.40;99.90;;;;;;5057925;28;25074;-75
2023/02/02 05:46:26;;;;;;;16.23;4.22;;;4.50;99.90;;;;;;5039834;28;25071;-75
2023/02/02 05:48:53;;;;;;;16.30;3.53;;;4.50;99.90;;;;;;5036012;28;25113;-75
2023/02/02 05:51:26;;;;;;;8.77;2.30;;;4.50;99.90;;;;;;5037813;28;25073;-75
2023/02/02 05:53:53;;;;;;;13.35;3.05;;;4.50;99.90;;;;;;5036741;28;25058;-75
2023/02/02 05:56:21;;;;;;;16.23;3.40;;;4.50;99.90;;;;;;5036583;28;25106;-75
2023/02/02 05:58:48;;;;;;;11.77;2.83;;;4.50;99.90;;;;;;5036742;28;25108;-75
2023/02/02 06:01:17;;;;;;;18.67;3.03;;;4.50;99.90;;;;;;5037636;28;25081;-75
2023/02/02 06:03:45;;;;;;;23.20;3.40;;;4.50;99.90;;;;;;5037906;28;25100;-75
2023/02/02 06:06:12;;;;;;;19.95;3.05;;;4.50;99.90;;;;;;5036735;28;25115;-75
2023/02/02 06:08:39;;;;;;;12.65;3.03;;;4.50;99.90;;;;;;5036621;28;25073;-75
2023/02/02 06:11:16;;;;;;;16.38;3.08;;;4.50;99.90;;;;;;5035715;28;25110;-75
2023/02/02 06:13:44;;;;;;;18.88;3.90;;;4.50;99.90;;;;;;5037259;28;25056;-75
2023/02/02 06:16:11;;;;;;;10.73;2.58;;;4.50;99.90;;;;;;5037341;28;25076;-75
2023/02/02 06:18:38;;;;;;;16.20;2.92;;;4.50;99.90;;;;;;5036681;28;25071;-75
2023/02/02 06:21:06;;;;;;;16.77;3.67;;;4.50;99.90;;;;;;5037799;28;25058;-75
2023/02/02 06:23:33;;;;;;;12.82;2.50;;;4.50;99.90;;;;;;5037200;28;25071;-75
2023/02/02 06:26:03;;;;;;;14.27;2.78;;;4.50;99.90;;;;;;5037095;28;25384;-75
2023/02/02 06:28:33;;;;;;;8.93;3.42;;;4.50;99.90;;;;;;5037114;28;25066;-75
2023/02/02 06:31:09;;;;;;;15.93;3.13;;;4.50;99.90;;;;;;5035971;28;25106;-75
2023/02/02 06:33:36;;;;;;;8.13;3.25;;;4.50;99.90;;;;;;5037307;28;25121;-75
2023/02/02 06:36:05;;;;;;;12.95;2.20;;;4.50;99.90;;;;;;5035908;28;25085;-75
2023/02/02 06:38:32;;;;;;;9.88;2.50;;;4.60;99.90;;;;;;5035521;28;25063;-75
2023/02/02 06:41:01;;;;;;;11.85;2.88;;;4.50;99.90;;;;;;5037010;28;25074;-75
2023/02/02 06:43:30;;;;;;;11.93;2.80;;;4.50;99.90;;;;;;5037249;28;25064;-81
2023/02/02 06:45:57;;;;;;;10.82;2.05;;;4.50;99.90;;;;;;5037055;28;25051;-75
2023/02/02 06:48:25;;;;;;;3.50;1.08;;;4.40;99.90;;;;;;5050645;28;25076;-74
2023/02/02 06:50:55;;;;;;;11.48;2.97;;;4.50;99.90;;;;;;5056622;28;25067;-75
2023/02/02 06:53:23;;;;;;;22.25;3.45;;;4.40;99.90;;;;;;5056949;28;25104;-75
2023/02/02 06:55:55;;;;;;;11.57;3.22;;;4.40;99.90;;;;;;5056464;28;25077;-75
2023/02/02 06:58:22;;;;;;;10.43;3.45;;;4.40;99.90;;;;;;5056718;28;25078;-72
2023/02/02 07:00:49;;;;;;;11.32;1.67;;;4.30;99.90;;;;;;5056621;28;25117;-77
2023/02/02 07:03:20;;;;;;;12.73;1.55;;;4.30;99.90;;;;;;5055874;28;25058;-77
2023/02/02 07:05:48;;;;;;;9.10;1.40;;;4.30;99.90;;;;;;5038768;28;25067;-76
2023/02/02 07:08:15;;;;;;;6.30;1.10;;;4.30;99.90;;;;;;5056660;28;25043;-79
2023/02/02 07:10:43;;;;;;;5.80;1.95;;;4.30;99.90;;;;;;5056511;28;25078;-77
2023/02/02 07:13:11;;;;;;;11.13;1.77;;;4.20;99.90;;;;;;5056231;28;25084;-78
2023/02/02 07:15:39;;;;;;;12.73;3.10;;;4.20;99.90;;;;;;5038835;28;25070;-78
2023/02/02 07:18:07;;;;;;;16.48;1.10;;;4.10;99.90;;;;;;5056271;28;25129;-78
2023/02/02 07:20:35;;;;;;;8.27;2.10;;;4.10;99.90;;;;;;5038660;28;25103;-78
2023/02/02 07:23:06;;;;;;;8.32;1.85;;;4.10;99.90;;;;;;5038554;28;25129;-78
2023/02/02 07:25:33;;;;;;;4.88;0.95;;;4.00;99.90;;;;;;5056514;28;25087;-78
2023/02/02 07:28:00;;;;;;;9.18;1.90;;;4.00;99.90;;;;;;5038523;28;25056;-79
2023/02/02 07:30:28;;;;;;;9.07;1.98;;;4.00;99.90;;;;;;5056478;28;25063;-77
2023/02/02 07:32:56;;;;;;;5.18;0.95;;;3.90;99.90;;;;;;5056035;28;25122;-80
2023/02/02 07:35:24;;;;;;;7.68;1.38;;;3.90;99.90;;;;;;5056238;28;25079;-77
2023/02/02 07:37:54;;;;;;;8.13;0.98;;;3.90;99.90;;;;;;5056061;28;25059;-84
2023/02/02 07:40:22;;;;;;;4.28;1.00;;;3.90;99.90;;;;;;5038526;28;25069;-77
2023/02/02 07:42:49;;;;;;;11.32;1.77;;;3.90;99.90;;;;;;5056094;28;25056;-80
2023/02/02 07:45:16;;;;;;;7.15;1.02;;;3.80;99.90;;;;;;5056134;28;25067;-79
2023/02/02 07:47:43;;;;;;;5.53;1.00;;;3.80;99.90;;;;;;5055888;28;25107;-76
2023/02/02 07:50:10;;;;;;;9.57;1.27;;;3.80;99.90;;;;;;5056216;28;25077;-76
2023/02/02 07:52:38;;;;;;;25.83;11.30;;;3.80;99.90;;;;;;5056125;28;25146;-76
2023/02/02 07:55:06;;;;;;;5.72;1.17;;;3.90;99.90;;;;;;5038525;28;25119;-76
2023/02/02 07:57:34;;;;;;;6.03;1.25;;;3.80;99.90;;;;;;5038263;28;25059;-76
2023/02/02 08:00:01;;;;;;;6.35;1.65;;;3.90;99.90;;;;;;5038180;28;25071;-76
2023/02/02 08:02:28;;;;;;;3.63;1.27;;;3.80;99.90;;;;;;5038208;28;25065;-76
2023/02/02 08:04:56;;;;;;;8.45;1.48;;;3.80;99.90;;;;;;5055961;28;25071;-76
2023/02/02 08:07:24;;;;;;;7.97;1.38;;;3.80;99.90;;;;;;5055841;28;25154;-76
2023/02/02 08:09:51;;;;;;;11.65;1.35;;;3.80;99.90;;;;;;5056333;28;25076;-76
2023/02/02 08:12:22;;;;;;;9.77;1.58;;;3.80;99.90;;;;;;5041353;28;25127;-76
2023/02/02 08:14:50;;;;;;;8.70;1.63;;;3.80;99.90;;;;;;5060478;28;25075;-76
2023/02/02 08:17:17;;;;;;;10.43;1.30;;;3.80;99.90;;;;;;5059681;28;25064;-76
2023/02/02 08:19:44;;;;;;;8.70;1.25;;;3.80;99.90;;;;;;5059989;28;25141;-76
2023/02/02 08:22:12;;;;;;;6.15;1.10;;;3.80;99.90;;;;;;5059358;28;25125;-76
2023/02/02 08:24:41;;;;;;;5.20;1.50;;;3.80;99.90;;;;;;5059711;28;25079;-76
2023/02/02 08:27:09;;;;;;;7.18;1.23;;;3.80;99.90;;;;;;5059699;28;25103;-76
2023/02/02 08:29:38;;;;;;;4.90;1.17;;;3.80;99.90;;;;;;5059244;28;25163;-76
2023/02/02 08:32:05;;;;;;;14.93;2.15;;;3.80;99.90;;;;;;5041500;28;25055;-76
2023/02/02 08:34:35;;;;;;;10.00;2.08;;;3.80;99.90;;;;;;5059462;28;25089;-76
2023/02/02 08:37:03;;;;;;;6.90;1.90;;;3.90;99.90;;;;;;5041304;28;25085;-76
2023/02/02 08:39:31;;;;;;;6.93;1.13;;;3.90;99.90;;;;;;5059619;28;25090;-76
2023/02/02 08:41:58;;;;;;;5.95;1.15;;;3.90;99.90;;;;;;5058932;28;25146;-76
2023/02/02 08:44:25;;;;;;;7.38;1.13;;;3.90;99.90;;;;;;5059313;28;25062;-76
2023/02/02 08:46:53;;;;;;;5.68;1.38;;;3.90;99.90;;;;;;5040996;28;25079;-76
2023/02/02 08:49:20;;;;;;;5.63;1.33;;;3.90;99.90;;;;;;5059185;28;25083;-76
2023/02/02 08:51:47;;;;;;;4.55;1.35;;;3.90;99.90;;;;;;5059441;28;25090;-76
2023/02/02 08:54:17;;;;;;;8.13;1.88;;;4.00;99.90;;;;;;5041100;28;25141;-76
2023/02/02 08:56:45;;;;;;;8.93;2.35;;;4.00;99.90;;;;;;5058759;28;25109;-76
2023/02/02 08:59:12;;;;;;;5.15;1.30;;;4.00;99.90;;;;;;5041244;28;25069;-76
2023/02/02 09:01:39;;;;;;;8.98;1.95;;;4.00;99.90;;;;;;5058632;28;25059;-76
2023/02/02 09:04:15;;;;;;;7.00;1.20;;;4.10;99.90;;;;;;5058652;28;25064;-76
2023/02/02 09:06:43;;;;;;;4.97;1.10;;;4.10;99.90;;;;;;5059155;28;25110;-76
2023/02/02 09:09:14;;;;;;;4.60;1.02;;;4.10;99.90;;;;;;5040985;28;25084;-76
2023/02/02 09:11:42;;;;;;;4.28;0.95;;;4.00;99.90;;;;;;5058429;28;25070;-76
2023/02/02 09:14:11;;;;;;;6.70;1.30;;;4.10;99.90;;;;;;5058673;28;25121;-76
2023/02/02 09:16:40;;;;;;;8.13;1.40;;;4.10;99.90;;;;;;5058380;28;25121;-75
2023/02/02 09:19:07;;;;;;;3.22;1.20;;;4.10;99.90;;;;;;5058598;28;25135;-76
2023/02/02 09:21:35;;;;;;;5.95;1.92;;;4.10;99.90;;;;;;5058275;28;25101;-76
2023/02/02 09:24:08;;;;;;;3.88;2.00;;;4.10;99.90;;;;;;5058605;28;25103;-76
2023/02/02 09:26:37;;;;;;;10.23;2.40;;;4.10;99.90;;;;;;5038813;28;25088;-76
2023/02/02 09:29:07;;;;;;;6.40;1.77;;;4.10;99.90;;;;;;5040654;28;25087;-76
2023/02/02 09:31:36;;;;;;;4.00;1.30;;;4.10;99.90;;;;;;5057186;28;25051;-76
2023/02/02 09:34:06;;;;;;;9.05;1.20;;;4.10;99.90;;;;;;5038967;28;25064;-76
2023/02/02 09:36:34;;;;;;;4.40;0.90;;;4.20;99.90;;;;;;5058035;28;25060;-76
2023/02/02 09:39:02;;;;;;;7.05;1.30;;;4.20;99.90;;;;;;5040248;28;25115;-76
2023/02/02 09:41:42;;;;;;;5.85;1.15;;;4.20;99.90;;;;;;5058059;28;25088;-76
2023/02/02 09:44:16;;;;;;;12.80;1.00;;;4.30;99.90;;;;;;5058268;28;25064;-76
2023/02/02 09:47:03;;;;;;;5.45;1.10;;;4.30;99.90;;;;;;5058114;28;25110;-76
2023/02/02 09:50:03;;;;;;;4.57;1.38;;;4.30;99.90;;;;;;5040129;28;25073;-76
2023/02/02 09:52:34;;;;;;;8.35;1.45;;;4.40;99.90;;;;;;5057901;28;25053;-76
2023/02/02 09:55:19;;;;;;;12.23;2.00;;;4.40;99.90;;;;;;5058365;28;25075;-76
2023/02/02 09:57:59;;;;;;;15.15;2.47;;;4.40;99.90;;;;;;5057649;28;25062;-76
2023/02/02 10:00:31;;;;;;;8.68;1.13;;;4.50;99.90;;;;;;5039856;28;25109;-77
2023/02/02 10:03:11;;;;;;;9.38;1.58;;;4.50;99.90;;;;;;5057939;28;25148;-76
2023/02/02 10:05:50;;;;;;;5.22;1.13;;;4.60;99.90;;;;;;5057990;28;25078;-75
2023/02/02 10:08:55;;;;;;;5.88;1.23;;;4.60;99.90;;;;;;5039774;28;25133;-74
2023/02/02 10:11:46;;;;;;;7.45;1.27;;;4.60;99.90;;;;;;5002939;28;25069;-76
2023/02/02 10:14:51;;;;;;;4.22;1.52;;;4.70;99.90;;;;;;5057500;28;25115;-75
2023/02/02 10:17:42;;;;;;;4.72;1.60;;;4.70;99.90;;;;;;5028176;28;25116;-75
2023/02/02 10:20:29;;;;;;;5.80;2.08;;;4.70;99.90;;;;;;5057501;28;25075;-76
2023/02/02 10:23:05;;;;;;;6.35;2.33;;;4.70;99.90;;;;;;5039461;28;25128;-76
2023/02/02 10:25:34;;;;;;;3.35;0.82;;;4.70;99.90;;;;;;5039387;28;25051;-76
2023/02/02 10:28:18;;;;;;;4.70;1.23;;;4.70;99.90;;;;;;5057186;28;25076;-76
2023/02/02 10:30:54;;;;;;;7.90;1.63;;;4.70;99.90;;;;;;5056951;28;25054;-76
2023/02/02 10:33:38;;;;;;;3.63;1.20;;;4.70;99.90;;;;;;5038628;28;25055;-76
2023/02/02 10:36:40;;;;;;;6.40;1.00;;;4.70;99.90;;;;;;5039215;28;25089;-76
2023/02/02 10:39:25;;;;;;;5.35;1.02;;;4.70;99.90;;;;;;5057039;28;25095;-77
2023/02/02 10:42:20;;;;;;;6.13;1.35;;;4.70;99.90;;;;;;5056716;28;25074;-77
2023/02/02 10:45:18;;;;;;;7.45;2.13;;;4.70;99.90;;;;;;5052016;28;25088;-77
2023/02/02 10:47:46;;;;;;;6.95;1.63;;;4.70;99.90;;;;;;5056445;28;25070;-78
2023/02/02 10:50:16;;;;;;;5.35;1.40;;;4.80;99.90;;;;;;5039184;28;25105;-77
2023/02/02 10:52:54;;;;;;;9.40;1.70;;;4.80;99.90;;;;;;5056528;28;25171;-75
2023/02/02 10:55:45;;;;;;;6.60;1.73;;;4.80;99.90;;;;;;5038830;28;25062;-75
2023/02/02 10:58:13;;;;;;;7.78;3.63;;;4.90;99.90;;;;;;5039033;28;25078;-75
2023/02/02 11:00:56;;;;;;;7.07;1.23;;;4.90;99.90;;;;;;5056758;28;25063;-75
2023/02/02 11:03:34;;;;;;;6.75;1.33;;;4.90;99.90;;;;;;5056790;28;25075;-76
2023/02/02 11:08:59;;;;;;;15.52;6.70;;;4.90;99.90;;;;;;5057135;28;25047;-76
2023/02/02 11:11:38;;;;;;;7.70;1.60;;;4.90;99.90;;;;;;5056391;28;25057;-76
2023/02/02 11:14:08;;;;;;;10.48;2.72;;;5.00;99.90;;;;;;5038601;28;25059;-76
2023/02/02 11:16:44;;;;;;;11.63;7.47;;;5.00;99.90;;;;;;5056570;28;25094;-77
2023/02/02 11:19:21;;;;;;;17.27;8.55;;;5.00;99.90;;;;;;5056696;28;25112;-76
2023/02/02 11:21:58;;;;;;;10.07;2.00;;;5.10;99.90;;;;;;5039297;28;25085;-75
2023/02/02 11:24:46;;;;;;;8.65;2.42;;;5.10;99.90;;;;;;5056207;28;25072;-77
2023/02/02 11:27:39;;;;;;;7.00;1.70;;;5.10;99.90;;;;;;5056343;28;25076;-76
2023/02/02 11:30:33;;;;;;;4.72;1.50;;;5.30;99.90;;;;;;5056134;28;25072;-77
2023/02/02 11:33:19;;;;;;;6.03;1.30;;;5.30;99.90;;;;;;5038409;28;25054;-76
2023/02/02 11:35:54;;;;;;;;;;;5.40;99.90;;;;;;5056442;28;25094;-74
2023/02/02 11:38:22;;;;;;;8.07;1.30;;;5.30;99.90;;;;;;5056314;28;24110;-73
2023/02/02 11:41:03;;;;;;;7.47;1.80;;;5.40;99.90;;;;;;5055964;28;25107;-73
2023/02/02 11:43:52;;;;;;;11.90;2.22;;;5.40;99.90;;;;;;5056072;28;25099;-73
2023/02/02 11:46:27;;;;;;;8.57;1.80;;;5.40;99.90;;;;;;5059714;28;25081;-73
2023/02/02 11:49:12;;;;;;;6.68;1.42;;;5.50;99.90;;;;;;5060027;28;25060;-73
2023/02/02 11:51:40;;;;;;;15.93;5.05;;;5.50;99.90;;;;;;5042266;28;25068;-74
2023/02/02 11:54:21;;;;;;;6.53;1.52;;;5.40;99.90;;;;;;5060187;28;25073;-74
2023/02/02 11:56:51;;;;;;;8.65;1.55;;;5.50;99.90;;;;;;5060434;28;25069;-74
2023/02/02 11:59:41;;;;;;;10.23;2.03;;;5.50;99.90;;;;;;5042353;28;25125;-73
2023/02/02 12:02:24;;;;;;;12.15;1.92;;;5.50;99.90;;;;;;5059823;28;25053;-75
2023/02/02 12:05:13;;;;;;;11.48;2.60;;;5.50;99.90;;;;;;5059871;28;25065;-75
2023/02/02 12:07:44;;;;;;;6.55;1.73;;;5.50;99.90;;;;;;5042183;28;25110;-87
2023/02/02 12:10:33;;;;;;;8.88;1.60;;;5.60;99.90;;;;;;5060605;28;25148;-74
2023/02/02 12:13:37;;;;;;;5.82;1.40;;;5.60;99.90;;;;;;5059873;28;25060;-76
2023/02/02 12:16:35;;;;;;;6.18;1.63;;;5.70;99.90;;;;;;5041874;28;25107;-75
2023/02/02 12:19:39;;;;;;;7.55;2.42;;;5.70;99.90;;;;;;5059923;28;25080;-74
2023/02/02 12:22:19;;;;;;;9.98;1.65;;;5.70;99.90;;;;;;5041947;28;25124;-73
2023/02/02 12:25:06;;;;;;;5.30;1.20;;;5.70;99.90;;;;;;5059751;28;25060;-74
2023/02/02 12:27:43;;;;;;;8.70;1.65;;;5.70;99.90;;;;;;5059320;28;25083;-74
2023/02/02 12:30:37;;;;;;;7.60;1.60;;;5.70;99.90;;;;;;5060019;28;25063;-73
2023/02/02 12:33:08;;;;;;;11.25;1.42;;;5.60;99.90;;;;;;5059519;28;25300;-73
2023/02/02 12:35:54;;;;;;;6.68;2.13;;;5.60;99.90;;;;;;5059468;28;25076;-74
2023/02/02 12:38:57;;;;;;;9.00;2.33;;;5.60;99.90;;;;;;5059617;28;25057;-73
2023/02/02 12:41:48;;;;;;;5.20;1.52;;;5.60;99.90;;;;;;5059141;28;25074;-74
2023/02/02 12:44:40;;;;;;;7.63;1.70;;;5.60;99.90;;;;;;5059316;28;25102;-74
2023/02/02 12:47:28;;;;;;;4.85;1.20;;;5.60;99.90;;;;;;5058833;28;25117;-73
2023/02/02 12:50:19;;;;;;;8.15;1.55;;;5.50;99.90;;;;;;5041474;28;25109;-74
2023/02/02 12:53:06;;;;;;;6.25;1.52;;;5.50;99.90;;;;;;5058781;28;25053;-73
2023/02/02 12:55:45;;;;;;;5.07;1.15;;;5.50;99.90;;;;;;5041070;28;25050;-74
2023/02/02 12:58:37;;;;;;;6.57;1.38;;;5.50;99.90;;;;;;5040719;28;25056;-74
2023/02/02 13:01:22;;;;;;;10.23;1.30;;;5.50;99.90;;;;;;5059007;28;25069;-74
2023/02/02 13:04:28;;;;;;;3.75;1.02;;;5.50;99.90;;;;;;5058944;28;25066;-73
2023/02/02 13:07:29;;;;;;;4.85;1.38;;;5.60;99.90;;;;;;5058640;28;25140;-74
2023/02/02 13:10:15;;;;;;;11.77;1.48;;;5.60;99.90;;;;;;5040946;28;25073;-74
2023/02/02 13:13:01;;;;;;;10.20;1.00;;;5.70;99.90;;;;;;5058763;28;25073;-73
2023/02/02 13:15:42;;;;;;;10.23;1.80;;;5.70;99.90;;;;;;5058399;28;25060;-74
2023/02/02 13:18:32;;;;;;;10.07;1.23;;;5.60;99.90;;;;;;5058580;28;25061;-74
2023/02/02 13:21:14;;;;;;;5.40;1.70;;;5.60;99.90;;;;;;5040600;28;25081;-74
2023/02/02 13:23:56;;;;;;;4.85;2.17;;;5.70;99.90;;;;;;5058313;28;25058;-81
2023/02/02 13:26:31;;;;;;;12.75;2.10;;;5.70;99.90;;;;;;5043828;28;25128;-78
2023/02/02 13:29:10;;;;;;;9.30;1.75;;;5.70;99.90;;;;;;5040630;28;25113;-75
2023/02/02 13:32:21;;;;;;;7.65;2.22;;;5.70;99.90;;;;;;5058443;28;25073;-75
2023/02/02 13:34:59;;;;;;;5.75;1.25;;;5.60;99.90;;;;;;4958368;29;25097;-75
2023/02/02 13:37:57;;;;;;;7.85;1.73;;;5.50;99.90;;;;;;5052443;28;25074;-75
2023/02/02 13:40:30;;;;;;;7.13;2.55;;;5.50;99.90;;;;;;5059479;28;25090;-75
2023/02/02 13:43:16;;;;;;;18.13;2.22;;;5.50;99.90;;;;;;5058002;28;25084;-75